Time;durP1;ratioP1;P1;durP2;ratioP2;P2;SDS_P1;SDS_P2;PMS_P1;PMS_P2;Temp;Humidity;BMP_temperature;BMP_pressure;BME280_temperature;BME280_humidity;BME280_pressure;Samples;Min_cycle;Max_cycle;Signal;HPM_P1;HPM_P2
2021/07/10 00:00:59;;;;;;;16.73;15.13;;;;;;;16.28;98.09;100829.34;5028942;28;20215;-77
2021/07/10 00:03:26;;;;;;;20.57;16.33;;;;;;;16.32;97.59;100845.06;5014348;28;20264;-78
2021/07/10 00:05:53;;;;;;;19.13;16.77;;;;;;;16.34;97.56;100844.09;5032270;28;20208;-77
2021/07/10 00:08:19;;;;;;;21.00;17.03;;;;;;;16.36;97.61;100851.94;5032415;28;20283;-77
2021/07/10 00:10:45;;;;;;;25.37;16.37;;;;;;;16.23;97.37;100851.50;5032495;28;20210;-77
2021/07/10 00:13:13;;;;;;;19.47;16.80;;;;;;;16.31;97.29;100848.59;5035320;28;20266;-77
2021/07/10 00:15:39;;;;;;;28.97;17.70;;;;;;;16.17;97.57;100839.41;5017081;28;20205;-76
2021/07/10 00:18:06;;;;;;;88.60;20.63;;;;;;;15.93;97.93;100827.13;5015956;28;20248;-77
2021/07/10 00:20:32;;;;;;;25.50;18.87;;;;;;;15.78;99.20;100781.16;5015479;28;20779;-77
2021/07/10 00:23:01;;;;;;;207.23;24.17;;;;;;;15.60;99.93;100762.41;5016280;28;20267;-77
2021/07/10 00:25:29;;;;;;;300.03;23.70;;;;;;;15.65;100.00;100739.41;5015336;28;20234;-78
2021/07/10 00:27:55;;;;;;;363.73;25.60;;;;;;;15.45;100.00;100716.44;5012834;28;20689;-77
2021/07/10 00:30:24;;;;;;;122.13;21.67;;;;;;;15.53;100.00;100700.38;5015809;28;20260;-77
2021/07/10 00:32:51;;;;;;;23.30;17.53;;;;;;;15.67;100.00;100706.00;5014677;28;20279;-77
2021/07/10 00:35:18;;;;;;;176.40;22.93;;;;;;;15.62;100.00;100720.28;5015602;28;20201;-77
2021/07/10 00:37:45;;;;;;;32.60;22.13;;;;;;;15.53;100.00;100712.69;5014140;28;20258;-76
2021/07/10 00:40:12;;;;;;;41.93;20.90;;;;;;;15.33;100.00;100706.34;5014796;28;20565;-77
2021/07/10 00:42:40;;;;;;;68.00;22.60;;;;;;;15.25;100.00;100695.22;5014678;28;20198;-77
2021/07/10 00:45:09;;;;;;;79.63;23.10;;;;;;;15.02;100.00;100680.22;5019999;28;20218;-78
2021/07/10 00:47:37;;;;;;;58.07;25.23;;;;;;;14.96;100.00;100672.53;5022569;28;20235;-77
2021/07/10 00:50:08;;;;;;;47.93;26.17;;;;;;;14.98;100.00;100676.81;5022374;28;20261;-78
2021/07/10 00:52:35;;;;;;;56.00;26.77;;;;;;;14.90;100.00;100684.13;5023688;28;20216;-78
2021/07/10 00:55:01;;;;;;;47.80;27.57;;;;;;;14.89;100.00;100685.88;5023907;28;20201;-78
2021/07/10 00:57:28;;;;;;;173.63;28.67;;;;;;;14.81;100.00;100695.81;5024605;28;20615;-77
2021/07/10 00:59:54;;;;;;;71.90;27.23;;;;;;;14.79;100.00;100702.88;5023214;28;20412;-78
2021/07/10 01:02:21;;;;;;;74.17;29.17;;;;;;;14.75;100.00;100714.41;5024457;28;20200;-78
2021/07/10 01:04:48;;;;;;;166.90;31.17;;;;;;;14.73;100.00;100731.97;5026214;28;20617;-77
2021/07/10 01:07:15;;;;;;;39.03;25.50;;;;;;;14.89;100.00;100734.97;5024493;28;20203;-78
2021/07/10 01:09:41;;;;;;;37.33;26.93;;;;;;;14.96;100.00;100741.75;5026680;28;20228;-78
2021/07/10 01:12:08;;;;;;;39.47;25.83;;;;;;;15.04;100.00;100744.13;5025533;28;20200;-78
2021/07/10 01:14:35;;;;;;;29.47;22.93;;;;;;;15.22;100.00;100743.53;5026940;28;20204;-78
2021/07/10 01:17:01;;;;;;;39.67;25.23;;;;;;;15.40;100.00;100738.53;5026347;28;20205;-78
2021/07/10 01:19:27;;;;;;;30.00;22.77;;;;;;;15.42;100.00;100737.59;5025326;28;20232;-78
2021/07/10 01:21:56;;;;;;;26.73;22.37;;;;;;;15.59;100.00;100741.41;5024659;28;20547;-77
2021/07/10 01:24:23;;;;;;;30.33;22.00;;;;;;;15.53;100.00;100746.88;5026252;28;20266;-78
2021/07/10 01:26:50;;;;;;;25.03;21.00;;;;;;;15.47;100.00;100754.06;5025083;28;20263;-78
2021/07/10 01:29:16;;;;;;;25.40;19.40;;;;;;;15.51;100.00;100749.56;5027204;28;20283;-78
2021/07/10 01:31:43;;;;;;;22.67;20.17;;;;;;;15.60;100.00;100748.38;5024179;28;20205;-78
2021/07/10 01:34:10;;;;;;;27.90;20.20;;;;;;;15.59;100.00;100758.06;5021350;28;20200;-78
2021/07/10 01:36:37;;;;;;;23.00;20.47;;;;;;;15.61;100.00;100769.38;5021421;28;20205;-78
2021/07/10 01:39:07;;;;;;;29.03;20.97;;;;;;;15.61;100.00;100779.06;5024641;28;20265;-78
2021/07/10 01:41:41;;;;;;;24.03;21.27;;;;;;;15.54;100.00;100774.91;5022377;28;20254;-78
2021/07/10 01:44:08;;;;;;;32.70;23.57;;;;;;;15.34;100.00;100772.94;5022440;28;20224;-77
2021/07/10 01:46:34;;;;;;;35.80;23.70;;;;;;;15.26;100.00;100757.41;5023939;28;20235;-78
2021/07/10 01:49:00;;;;;;;77.77;25.63;;;;;;;15.18;100.00;100755.06;5025008;28;20235;-78
2021/07/10 01:51:27;;;;;;;60.23;27.13;;;;;;;15.10;100.00;100738.66;5023461;28;20255;-78
2021/07/10 01:53:53;;;;;;;64.53;26.17;;;;;;;15.09;100.00;100731.69;5021815;28;20627;-78
2021/07/10 01:56:21;;;;;;;78.67;24.43;;;;;;;15.09;100.00;100731.69;5027800;28;20208;-76
2021/07/10 01:58:47;;;;;;;45.20;26.47;;;;;;;15.13;100.00;100735.09;5027331;28;20239;-78
2021/07/10 02:01:14;;;;;;;136.43;25.87;;;;;;;15.20;100.00;100737.47;5025787;28;20270;-78
2021/07/10 02:03:40;;;;;;;34.73;23.73;;;;;;;15.30;100.00;100738.00;5018496;28;20213;-77
2021/07/10 02:06:07;;;;;;;95.07;24.33;;;;;;;15.17;100.00;100737.56;5023497;28;20624;-78
2021/07/10 02:08:33;;;;;;;79.63;25.73;;;;;;;15.01;100.00;100739.84;5022424;28;20228;-76
2021/07/10 02:11:00;;;;;;;59.03;27.93;;;;;;;14.98;100.00;100737.28;5023875;28;20196;-77
2021/07/10 02:13:27;;;;;;;43.60;27.70;;;;;;;14.92;100.00;100734.88;5034557;28;20267;-76
2021/07/10 02:15:54;;;;;;;42.60;28.33;;;;;;;14.89;100.00;100732.34;5035621;28;20211;-76
2021/07/10 02:18:20;;;;;;;54.03;29.07;;;;;;;14.83;100.00;100738.66;5034683;28;20212;-76
2021/07/10 02:20:47;;;;;;;50.40;29.47;;;;;;;14.78;100.00;100742.34;5032361;28;20253;-77
2021/07/10 02:23:13;;;;;;;53.90;29.73;;;;;;;14.73;100.00;100742.50;5031357;28;20208;-77
2021/07/10 02:25:40;;;;;;;49.80;29.23;;;;;;;14.69;100.00;100740.88;5033094;28;20662;-78
2021/07/10 02:28:06;;;;;;;52.87;28.77;;;;;;;14.67;100.00;100738.28;5033843;28;20675;-78
2021/07/10 02:30:34;;;;;;;51.00;29.00;;;;;;;14.67;100.00;100735.66;4999328;28;1004834;-77
2021/07/10 02:33:04;;;;;;;48.70;29.30;;;;;;;14.63;100.00;100734.03;5014398;28;20643;-78
2021/07/10 02:35:31;;;;;;;60.97;28.83;;;;;;;14.63;100.00;100735.81;5013450;28;20210;-78
2021/07/10 02:37:59;;;;;;;73.07;30.20;;;;;;;14.61;100.00;100740.25;5014705;28;20213;-78
2021/07/10 02:40:26;;;;;;;68.60;30.53;;;;;;;14.60;100.00;100744.63;5017049;28;20321;-77
2021/07/10 02:42:54;;;;;;;66.97;31.50;;;;;;;14.64;100.00;100742.75;5033889;28;20258;-78
2021/07/10 02:45:21;;;;;;;61.87;32.10;;;;;;;14.64;100.00;100742.75;5016551;28;20231;-78
2021/07/10 02:47:49;;;;;;;64.23;32.27;;;;;;;14.64;100.00;100740.13;5014460;28;20858;-77
2021/07/10 02:50:20;;;;;;;60.33;31.00;;;;;;;14.72;100.00;100729.41;5014258;28;20232;-77
2021/07/10 02:52:46;;;;;;;55.67;30.43;;;;;;;14.72;100.00;100737.28;5014950;28;20285;-78
2021/07/10 02:55:13;;;;;;;59.07;28.97;;;;;;;14.74;100.00;100740.72;5014568;28;20208;-78
2021/07/10 02:57:40;;;;;;;49.60;28.50;;;;;;;14.72;100.00;100737.28;5012865;28;20196;-78
2021/07/10 03:00:10;;;;;;;62.30;29.20;;;;;;;14.61;100.00;100740.25;5012505;28;20894;-78
2021/07/10 03:02:37;;;;;;;46.43;27.67;;;;;;;14.59;100.00;100737.66;5004302;28;20208;-77
2021/07/10 03:05:06;;;;;;;45.37;28.20;;;;;;;14.58;100.00;100743.81;5014140;28;20207;-78
2021/07/10 03:07:32;;;;;;;47.10;29.23;;;;;;;14.59;100.00;100734.16;5013963;28;20203;-77
2021/07/10 03:09:58;;;;;;;45.23;27.47;;;;;;;14.61;100.00;100732.38;5014199;28;20254;-77
2021/07/10 03:12:25;;;;;;;38.83;25.87;;;;;;;14.62;100.00;100734.06;5012368;28;20201;-77
2021/07/10 03:14:51;;;;;;;39.67;25.53;;;;;;;14.65;100.00;100739.25;5012811;28;20274;-78
2021/07/10 03:17:18;;;;;;;35.27;23.70;;;;;;;14.61;100.00;100740.25;5012613;28;20254;-78
2021/07/10 03:19:44;;;;;;;32.80;23.87;;;;;;;14.67;100.00;100745.31;5011938;28;20224;-77
2021/07/10 03:22:12;;;;;;;32.80;24.13;;;;;;;14.56;100.00;100750.88;5012147;28;20216;-78
2021/07/10 03:24:38;;;;;;;35.87;23.10;;;;;;;14.62;100.00;100734.06;5012234;28;20769;-78
2021/07/10 03:27:05;;;;;;;40.10;24.10;;;;;;;14.68;100.00;100731.25;5012578;28;20624;-78
2021/07/10 03:29:32;;;;;;;33.57;22.63;;;;;;;14.61;100.00;100743.72;5016894;28;20229;-78
2021/07/10 03:31:58;;;;;;;27.97;21.80;;;;;;;14.54;100.00;100760.53;5019908;28;20283;-77
2021/07/10 03:34:24;;;;;;;24.83;22.20;;;;;;;14.53;100.00;100765.84;5012137;28;20234;-76
2021/07/10 03:36:51;;;;;;;29.97;21.30;;;;;;;14.56;100.00;100763.13;5012346;28;20205;-77
2021/07/10 03:39:18;;;;;;;23.03;20.67;;;;;;;14.55;100.00;100770.16;5012391;28;20258;-77
2021/07/10 03:41:45;;;;;;;29.80;20.60;;;;;;;14.63;100.00;100765.56;5012608;28;20214;-77
2021/07/10 03:44:11;;;;;;;25.77;21.40;;;;;;;14.59;100.00;100768.31;5012880;28;20670;-78
2021/07/10 03:46:38;;;;;;;33.00;22.57;;;;;;;14.65;100.00;100779.50;5014052;28;20207;-77
2021/07/10 03:49:04;;;;;;;28.23;20.23;;;;;;;14.76;100.00;100773.06;5016029;28;20225;-78
2021/07/10 03:51:31;;;;;;;26.13;20.30;;;;;;;14.92;100.00;100769.03;5016287;28;20216;-78
2021/07/10 03:53:57;;;;;;;24.07;20.67;;;;;;;15.03;100.00;100777.44;5016089;28;20678;-77
2021/07/10 03:56:25;;;;;;;24.50;21.67;;;;;;;14.82;100.00;100781.59;5016531;28;20203;-78
2021/07/10 03:58:51;;;;;;;35.47;23.47;;;;;;;14.68;100.00;100760.16;5016170;28;20247;-78
2021/07/10 04:01:18;;;;;;;35.40;25.07;;;;;;;14.63;100.00;100736.66;5009908;28;20205;-77
2021/07/10 04:03:44;;;;;;;37.00;23.30;;;;;;;14.68;100.00;100732.09;5014248;28;20217;-78
2021/07/10 04:06:10;;;;;;;29.83;21.73;;;;;;;14.66;100.00;100730.44;5015908;28;20243;-78
2021/07/10 04:08:37;;;;;;;29.97;23.10;;;;;;;14.65;100.00;100747.13;5016547;28;20212;-77
2021/07/10 04:11:03;;;;;;;25.87;21.27;;;;;;;14.78;100.00;100742.34;5016240;28;20224;-78
2021/07/10 04:13:31;;;;;;;26.77;21.30;;;;;;;14.75;100.00;100752.97;5023126;28;20207;-77
2021/07/10 04:15:58;;;;;;;24.47;20.57;;;;;;;14.71;100.00;100775.84;5035755;28;20266;-78
2021/07/10 04:18:24;;;;;;;26.50;20.07;;;;;;;14.63;100.00;100791.84;5034900;28;20264;-77
2021/07/10 04:20:50;;;;;;;22.30;20.10;;;;;;;14.59;100.00;100790.22;5035573;28;20665;-77
2021/07/10 04:23:17;;;;;;;22.03;19.73;;;;;;;14.70;100.00;100782.84;5035379;28;20210;-78
2021/07/10 04:25:43;;;;;;;26.20;20.03;;;;;;;14.81;100.00;100776.41;5033953;28;20204;-78
2021/07/10 04:28:10;;;;;;;24.17;19.47;;;;;;;14.86;100.00;100787.63;5034700;28;20207;-77
2021/07/10 04:30:38;;;;;;;24.43;19.43;;;;;;;14.91;99.69;100811.16;5034370;28;20232;-77
2021/07/10 04:33:05;;;;;;;21.47;19.20;;;;;;;14.92;99.95;100813.72;5015283;28;20642;-78
2021/07/10 04:35:32;;;;;;;20.07;18.07;;;;;;;14.73;98.90;100836.22;5015804;28;20209;-78
2021/07/10 04:37:58;;;;;;;19.57;17.70;;;;;;;14.69;98.78;100841.56;5015747;28;20262;-77
2021/07/10 04:40:24;;;;;;;23.33;18.97;;;;;;;14.82;98.72;100841.19;5024194;28;20223;-78
2021/07/10 04:42:51;;;;;;;20.03;17.80;;;;;;;15.00;99.52;100816.13;5029203;28;20199;-77
2021/07/10 04:45:17;;;;;;;21.63;18.33;;;;;;;15.11;99.33;100818.44;5034809;22;20788;-74
2021/07/10 04:47:45;;;;;;;22.00;18.07;;;;;;;15.20;99.23;100821.63;5033025;28;20212;-74
2021/07/10 04:50:12;;;;;;;20.13;18.03;;;;;;;15.31;99.07;100821.25;5033345;28;20230;-74
2021/07/10 04:52:42;;;;;;;25.00;19.03;;;;;;;15.38;99.16;100820.16;5033379;28;20210;-74
2021/07/10 04:55:09;;;;;;;27.53;22.40;;;;;;;15.40;99.23;100810.47;5029902;28;20227;-75
2021/07/10 04:57:36;;;;;;;31.83;21.60;;;;;;;15.35;99.72;100787.84;5026040;28;20254;-73
2021/07/10 05:00:04;;;;;;;22.80;19.60;;;;;;;15.47;100.00;100777.75;5013151;28;20620;-74
2021/07/10 05:02:30;;;;;;;22.77;20.10;;;;;;;15.55;100.00;100784.53;5013176;28;20266;-74
2021/07/10 05:04:58;;;;;;;40.27;25.37;;;;;;;15.54;100.00;100786.31;5014079;28;20597;-74
2021/07/10 05:07:25;;;;;;;23.20;20.83;;;;;;;15.62;100.00;100770.28;5014153;28;20233;-74
2021/07/10 05:09:51;;;;;;;35.30;25.50;;;;;;;15.67;100.00;100776.22;5023327;28;20223;-74
2021/07/10 05:12:20;;;;;;;27.00;23.43;;;;;;;15.61;100.00;100760.63;5028617;28;20199;-73
2021/07/10 05:14:47;;;;;;;26.63;22.87;;;;;;;15.62;100.00;100759.75;5014005;28;20315;-73
2021/07/10 05:17:13;;;;;;;24.93;22.40;;;;;;;15.70;100.00;100760.31;5014152;28;20262;-74
2021/07/10 05:19:40;;;;;;;27.57;24.10;;;;;;;15.43;100.00;100757.72;5012934;28;20286;-73
2021/07/10 05:22:07;;;;;;;34.17;23.53;;;;;;;15.50;100.00;100742.59;5012697;28;20213;-74
2021/07/10 05:24:34;;;;;;;26.90;24.07;;;;;;;15.51;100.00;100754.84;5021867;28;20228;-75
2021/07/10 05:27:01;;;;;;;25.43;23.00;;;;;;;15.37;100.00;100754.44;5032978;28;20205;-73
2021/07/10 05:29:27;;;;;;;22.67;19.83;;;;;;;15.49;100.00;100746.13;5033679;28;20593;-74
2021/07/10 05:31:54;;;;;;;22.93;20.63;;;;;;;15.70;100.00;100744.53;5033455;28;20265;-72
2021/07/10 05:34:20;;;;;;;22.73;20.43;;;;;;;15.77;100.00;100751.31;5033389;28;20293;-74
2021/07/10 05:36:47;;;;;;;23.30;20.93;;;;;;;15.86;100.00;100760.69;5013744;28;20630;-74
2021/07/10 05:39:15;;;;;;;26.13;22.73;;;;;;;15.77;100.00;100772.38;5020197;28;20239;-75
2021/07/10 05:41:42;;;;;;;23.80;21.40;;;;;;;15.83;100.00;100774.78;5030481;28;20205;-74
2021/07/10 05:44:09;;;;;;;25.47;21.33;;;;;;;15.87;99.68;100786.94;5013104;28;20255;-75
2021/07/10 05:46:35;;;;;;;21.70;19.60;;;;;;;15.81;98.31;100831.88;5012701;28;20220;-74
2021/07/10 05:49:01;;;;;;;25.80;20.67;;;;;;;15.69;98.27;100841.03;5013442;28;20213;-74
2021/07/10 05:51:28;;;;;;;24.07;20.03;;;;;;;15.75;98.44;100832.09;5013302;28;20314;-74
2021/07/10 05:53:54;;;;;;;23.37;20.67;;;;;;;15.82;97.82;100845.94;5018108;28;20784;-74
2021/07/10 05:56:22;;;;;;;20.60;18.80;;;;;;;15.91;97.99;100835.06;5031593;28;20695;-74
2021/07/10 05:58:48;;;;;;;19.30;17.50;;;;;;;16.03;98.00;100837.28;5013474;28;20209;-75
2021/07/10 06:01:15;;;;;;;19.47;17.77;;;;;;;15.98;97.34;100872.59;5014104;28;20206;-73
2021/07/10 06:03:41;;;;;;;18.90;17.00;;;;;;;15.81;96.02;100900.34;5016080;28;20666;-74
2021/07/10 06:06:08;;;;;;;23.50;17.07;;;;;;;15.72;95.00;100955.00;5018024;28;20208;-74
2021/07/10 06:08:34;;;;;;;19.33;17.83;;;;;;;15.84;96.12;100913.41;5013717;28;20292;-74
2021/07/10 06:11:00;;;;;;;19.00;17.43;;;;;;;15.83;95.77;100929.25;5014170;28;20232;-74
2021/07/10 06:13:28;;;;;;;20.77;19.07;;;;;;;15.88;96.18;100893.13;5012911;28;20268;-73
2021/07/10 06:15:54;;;;;;;17.93;16.37;;;;;;;15.92;94.70;100946.53;5012745;28;20278;-74
2021/07/10 06:18:21;;;;;;;18.47;17.07;;;;;;;16.00;94.17;100970.84;5014384;28;20744;-73
2021/07/10 06:20:47;;;;;;;18.83;17.13;;;;;;;16.08;93.76;100974.91;5032856;28;20266;-74
2021/07/10 06:23:13;;;;;;;19.47;17.87;;;;;;;16.13;93.58;100985.28;5032283;28;20728;-74
2021/07/10 06:25:40;;;;;;;19.53;17.67;;;;;;;16.18;94.30;100956.19;5032612;28;20240;-74
2021/07/10 06:28:07;;;;;;;14.13;13.03;;;;;;;16.11;89.19;101108.28;5032578;28;20215;-74
2021/07/10 06:30:35;;;;;;;16.83;15.43;;;;;;;16.20;90.63;101086.06;5020725;28;20263;-73
2021/07/10 06:33:02;;;;;;;14.33;13.23;;;;;;;16.20;88.22;101147.50;5012743;28;20206;-74
2021/07/10 06:35:28;;;;;;;14.33;13.23;;;;;;;16.27;88.06;101172.75;5013819;28;20222;-74
2021/07/10 06:37:55;;;;;;;15.47;14.40;;;;;;;16.33;88.24;101163.78;5012093;28;20209;-73
2021/07/10 06:40:22;;;;;;;16.47;15.07;;;;;;;16.34;88.34;101147.06;5012178;28;20201;-73
2021/07/10 06:42:48;;;;;;;14.77;13.67;;;;;;;16.29;86.83;101206.94;5011653;28;20251;-73
2021/07/10 06:45:17;;;;;;;15.50;14.00;;;;;;;16.35;87.98;101166.38;5011738;28;20240;-73
2021/07/10 06:47:45;;;;;;;14.33;13.07;;;;;;;16.44;87.64;101152.91;5011653;28;20212;-73
2021/07/10 06:50:14;;;;;;;14.47;13.43;;;;;;;16.54;88.33;101122.72;5011816;28;20235;-73
2021/07/10 06:52:40;;;;;;;15.23;13.97;;;;;;;16.51;86.85;101167.63;5016398;28;20226;-74
2021/07/10 06:55:10;;;;;;;15.70;14.30;;;;;;;16.61;87.76;101149.72;5021548;28;20224;-73
2021/07/10 06:57:37;;;;;;;14.10;12.93;;;;;;;16.69;87.61;101150.38;5013210;28;20739;-74
2021/07/10 07:00:05;;;;;;;15.43;14.10;;;;;;;16.65;86.38;101181.22;5011156;28;20201;-73
2021/07/10 07:02:32;;;;;;;15.23;14.13;;;;;;;16.63;87.41;101156.69;5010346;28;20198;-73
2021/07/10 07:04:59;;;;;;;15.47;14.00;;;;;;;16.60;86.97;101163.84;5013231;28;20224;-74
2021/07/10 07:07:26;;;;;;;16.20;14.73;;;;;;;16.66;87.13;101155.72;5013229;28;20203;-73
2021/07/10 07:09:52;;;;;;;17.00;15.70;;;;;;;16.72;86.79;101173.13;5010572;28;20209;-73
2021/07/10 07:12:19;;;;;;;16.00;14.67;;;;;;;16.81;87.40;101133.28;5012551;28;20228;-73
2021/07/10 07:14:45;;;;;;;18.23;16.37;;;;;;;16.92;88.46;101069.63;5012600;28;20226;-74
2021/07/10 07:17:11;;;;;;;16.93;15.50;;;;;;;16.79;86.90;101143.00;5012242;28;20208;-73
2021/07/10 07:19:38;;;;;;;15.23;14.03;;;;;;;16.84;86.77;101151.66;5011344;28;20200;-74
2021/07/10 07:22:05;;;;;;;16.03;14.73;;;;;;;16.94;86.97;101146.91;5010736;28;20667;-73
2021/07/10 07:24:32;;;;;;;15.03;13.93;;;;;;;16.95;87.05;101140.75;5017939;28;20217;-73
2021/07/10 07:26:58;;;;;;;14.40;13.30;;;;;;;17.07;85.19;101199.22;5020950;28;20217;-74
2021/07/10 07:29:25;;;;;;;14.07;12.83;;;;;;;17.17;83.92;101256.94;5022294;28;20281;-74
2021/07/10 07:31:51;;;;;;;14.33;13.03;;;;;;;17.42;83.95;101252.56;5010800;28;20719;-73
2021/07/10 07:34:17;;;;;;;15.70;14.30;;;;;;;17.46;82.87;101291.13;5011140;28;20276;-73
2021/07/10 07:36:44;;;;;;;14.50;13.30;;;;;;;17.37;83.41;101256.28;5015629;28;20248;-72
2021/07/10 07:39:11;;;;;;;16.70;15.43;;;;;;;17.43;84.85;101192.72;5019844;28;20250;-73
2021/07/10 07:41:38;;;;;;;50.40;20.63;;;;;;;17.57;89.17;101032.03;5008850;28;20198;-73
2021/07/10 07:44:06;;;;;;;27.10;17.20;;;;;;;17.70;91.12;100931.22;5011021;28;20229;-75
2021/07/10 07:46:32;;;;;;;16.93;14.37;;;;;;;17.42;85.93;101117.97;5011482;28;20205;-73
2021/07/10 07:48:59;;;;;;;23.87;14.57;;;;;;;17.56;86.64;101095.44;5011271;28;20206;-73
2021/07/10 07:51:25;;;;;;;15.87;14.53;;;;;;;17.56;88.56;101030.34;5011500;28;20287;-74
2021/07/10 07:53:52;;;;;;;20.00;17.30;;;;;;;17.62;91.89;100892.81;5012247;28;20217;-78
2021/07/10 07:56:19;;;;;;;19.73;17.97;;;;;;;17.67;92.81;100843.28;5013450;28;20252;-73
2021/07/10 07:58:46;;;;;;;17.20;15.53;;;;;;;17.76;92.19;100878.16;5011830;28;20217;-74
2021/07/10 08:01:12;;;;;;;16.17;14.43;;;;;;;17.80;90.21;100927.28;5011227;28;20256;-74
2021/07/10 08:03:40;;;;;;;14.27;13.00;;;;;;;17.94;86.47;101098.44;5011327;28;20202;-73
2021/07/10 08:06:06;;;;;;;14.93;13.83;;;;;;;18.17;85.51;101140.66;5011365;28;20552;-73
2021/07/10 08:08:36;;;;;;;14.30;13.10;;;;;;;18.22;81.45;101280.56;5011046;28;20256;-74
2021/07/10 08:11:03;;;;;;;14.07;12.97;;;;;;;18.00;79.78;101352.69;5011267;28;20234;-73
2021/07/10 08:13:31;;;;;;;12.90;11.90;;;;;;;18.04;80.01;101361.38;5009287;28;20214;-73
2021/07/10 08:15:58;;;;;;;15.40;14.20;;;;;;;18.03;82.57;101230.16;5011347;28;20208;-72
2021/07/10 08:18:24;;;;;;;15.50;14.30;;;;;;;18.21;85.98;101097.34;5010765;28;20217;-73
2021/07/10 08:20:51;;;;;;;16.27;14.87;;;;;;;18.40;83.85;101160.06;5010891;28;20248;-73
2021/07/10 08:23:17;;;;;;;16.43;15.27;;;;;;;18.38;85.01;101101.94;5010285;28;20253;-73
2021/07/10 08:25:45;;;;;;;18.03;16.33;;;;;;;18.39;83.75;101166.25;5011487;28;20229;-73
2021/07/10 08:28:11;;;;;;;18.27;16.83;;;;;;;18.24;80.27;101289.31;5011175;28;20808;-74
2021/07/10 08:30:39;;;;;;;17.63;16.10;;;;;;;18.46;81.70;101258.47;5011683;28;20219;-74
2021/07/10 08:33:06;;;;;;;16.87;15.47;;;;;;;18.64;82.17;101229.59;5013033;28;20249;-73
2021/07/10 08:35:32;;;;;;;16.63;15.47;;;;;;;18.72;82.78;101200.19;5014286;28;20575;-74
2021/07/10 08:37:59;;;;;;;17.93;16.53;;;;;;;18.48;81.83;101225.84;5014707;28;20206;-73
2021/07/10 08:40:25;;;;;;;17.20;15.90;;;;;;;18.61;82.37;101220.00;5015210;28;20207;-74
2021/07/10 08:42:52;;;;;;;17.70;16.30;;;;;;;18.73;82.06;101220.41;5015063;28;20220;-73
2021/07/10 08:45:19;;;;;;;17.00;15.80;;;;;;;18.62;81.08;101211.13;5014631;28;20281;-74
2021/07/10 08:47:46;;;;;;;18.43;16.93;;;;;;;18.73;82.70;101183.38;5018954;28;20260;-73
2021/07/10 08:50:15;;;;;;;18.00;16.67;;;;;;;18.81;82.18;101200.72;5014622;28;20264;-73
2021/07/10 08:52:42;;;;;;;19.53;17.70;;;;;;;18.71;79.91;101288.38;5014285;28;20300;-72
2021/07/10 08:55:10;;;;;;;18.00;16.60;;;;;;;18.84;81.15;101248.19;5014447;28;20222;-73
2021/07/10 08:57:37;;;;;;;16.47;15.10;;;;;;;18.89;80.73;101258.59;5014621;28;20210;-73
2021/07/10 09:00:08;;;;;;;16.80;15.60;;;;;;;18.82;80.31;101271.19;5014523;28;20206;-73
2021/07/10 09:02:34;;;;;;;16.30;15.20;;;;;;;18.92;80.21;101265.56;5014183;28;20202;-73
2021/07/10 09:05:04;;;;;;;17.53;15.83;;;;;;;18.97;80.07;101271.53;5014111;28;20612;-73
2021/07/10 09:07:30;;;;;;;16.90;15.60;;;;;;;18.79;79.30;101310.09;5014466;28;20206;-73
2021/07/10 09:09:57;;;;;;;16.63;15.40;;;;;;;18.78;78.85;101306.59;5014399;28;20215;-73
2021/07/10 09:12:31;;;;;;;16.60;15.40;;;;;;;18.79;78.01;101347.13;5014056;28;20285;-74
2021/07/10 09:14:57;;;;;;;17.70;16.47;;;;;;;18.91;79.82;101277.03;5014134;28;20233;-73
2021/07/10 09:17:24;;;;;;;16.50;15.37;;;;;;;19.07;79.01;101282.56;5020381;28;20206;-73
2021/07/10 09:19:54;;;;;;;17.50;16.03;;;;;;;19.04;77.42;101363.81;5014221;28;20210;-73
2021/07/10 09:22:30;;;;;;;16.90;15.60;;;;;;;19.08;78.32;101335.44;5014533;28;20210;-74
2021/07/10 09:24:58;;;;;;;16.93;15.50;;;;;;;19.19;77.71;101330.59;5015137;28;20234;-74
2021/07/10 09:27:24;;;;;;;16.17;14.93;;;;;;;19.23;79.35;101291.63;5014884;28;20684;-73
2021/07/10 09:29:51;;;;;;;16.37;15.13;;;;;;;19.22;76.31;101364.84;5014070;28;20207;-73
2021/07/10 09:32:19;;;;;;;16.90;15.40;;;;;;;19.45;79.29;101265.09;5027421;28;20759;-74
2021/07/10 09:34:48;;;;;;;15.17;13.97;;;;;;;19.40;75.95;101368.53;5033315;28;20576;-74
2021/07/10 09:37:16;;;;;;;15.07;13.97;;;;;;;19.39;76.66;101368.63;5033617;28;20248;-73
2021/07/10 09:39:47;;;;;;;15.60;14.33;;;;;;;19.54;77.16;101357.38;5033465;28;20260;-73
2021/07/10 09:42:16;;;;;;;16.50;15.30;;;;;;;19.67;79.22;101264.19;5033196;28;20233;-72
2021/07/10 09:44:50;;;;;;;15.87;14.77;;;;;;;19.85;77.63;101303.13;5032060;28;20291;-73
2021/07/10 09:47:24;;;;;;;15.90;14.80;;;;;;;19.62;74.88;101428.59;5017168;28;20621;-72
2021/07/10 09:49:50;;;;;;;15.57;14.13;;;;;;;19.74;74.70;101421.94;5013559;28;20202;-74
2021/07/10 09:52:19;;;;;;;15.83;14.50;;;;;;;19.89;77.05;101323.28;5013146;28;20513;-72
2021/07/10 09:54:50;;;;;;;14.10;12.80;;;;;;;19.85;74.38;101435.63;5013298;28;20233;-74
2021/07/10 09:57:19;;;;;;;13.80;12.80;;;;;;;20.03;74.78;101413.63;5013354;28;20211;-73
2021/07/10 09:59:48;;;;;;;14.80;13.70;;;;;;;19.67;70.48;101564.38;5013491;28;20207;-73
2021/07/10 10:02:22;;;;;;;13.20;12.10;;;;;;;19.75;72.06;101529.66;5013104;28;20265;-73
2021/07/10 10:04:49;;;;;;;13.63;12.53;;;;;;;19.80;72.15;101470.25;5013246;28;20239;-73
2021/07/10 10:07:17;;;;;;;14.17;13.17;;;;;;;19.88;69.80;101568.00;5013144;28;20253;-74
2021/07/10 10:09:45;;;;;;;12.47;11.30;;;;;;;19.91;72.28;101487.50;5013004;28;20221;-73
2021/07/10 10:12:14;;;;;;;13.13;12.23;;;;;;;19.86;71.91;101486.81;5012934;28;20300;-73
2021/07/10 10:14:46;;;;;;;13.93;12.93;;;;;;;19.98;71.51;101478.34;5012766;28;20230;-73
2021/07/10 10:17:14;;;;;;;13.37;12.30;;;;;;;19.94;69.95;101548.31;5011727;28;20214;-73
2021/07/10 10:19:42;;;;;;;12.43;11.33;;;;;;;20.13;72.52;101482.16;5012113;28;20269;-73
2021/07/10 10:22:10;;;;;;;12.93;11.97;;;;;;;20.17;71.03;101503.16;5013278;28;20737;-73
2021/07/10 10:24:38;;;;;;;12.13;11.03;;;;;;;20.36;71.13;101462.63;5012878;28;20230;-74
2021/07/10 10:27:06;;;;;;;12.07;11.27;;;;;;;20.50;70.15;101470.84;5012601;28;20206;-74
2021/07/10 10:29:34;;;;;;;14.37;11.87;;;;;;;20.45;68.39;101578.91;5013078;28;20207;-74
2021/07/10 10:32:02;;;;;;;12.13;11.13;;;;;;;20.48;66.32;101638.94;5013145;28;20238;-73
2021/07/10 10:34:28;;;;;;;10.60;9.70;;;;;;;20.57;67.24;101614.69;5012457;28;20276;-73
2021/07/10 10:36:57;;;;;;;10.40;9.70;;;;;;;20.58;66.12;101657.06;5012467;28;20675;-73
2021/07/10 10:39:25;;;;;;;10.53;9.83;;;;;;;20.72;68.32;101544.22;5029474;28;20202;-73
2021/07/10 10:41:56;;;;;;;10.43;9.63;;;;;;;20.70;66.24;101631.00;5031865;28;20205;-72
2021/07/10 10:46:52;;;;;;;10.30;9.57;;;;;;;20.71;67.88;101569.00;5054093;22;20226;-77
2021/07/10 10:49:42;;;;;;;8.90;8.17;;;;;;;20.87;65.96;101612.56;5031866;28;20300;-77
2021/07/10 10:52:32;;;;;;;10.87;9.83;;;;;;;20.70;63.22;101745.09;5023761;28;20667;-77
2021/07/10 10:55:08;;;;;;;9.10;8.50;;;;;;;20.85;65.75;101643.59;5029786;28;20233;-77
2021/07/10 10:57:37;;;;;;;8.83;8.23;;;;;;;20.96;64.62;101673.19;5046179;28;20552;-77
2021/07/10 11:00:14;;;;;;;7.53;7.03;;;;;;;21.21;64.19;101638.47;5031111;28;20213;-77
2021/07/10 11:02:52;;;;;;;7.83;7.23;;;;;;;21.30;62.48;101729.31;5030944;28;20252;-77
2021/07/10 11:05:34;;;;;;;6.77;6.27;;;;;;;21.25;60.42;101816.28;5029558;28;20719;-77
2021/07/10 11:08:20;;;;;;;8.00;7.50;;;;;;;21.29;60.38;101791.31;5031777;28;20202;-77
2021/07/10 11:10:47;;;;;;;8.27;7.60;;;;;;;21.35;60.79;101788.41;5029439;28;20202;-77